sensor_id;sensor_type;location;lat;lon;timestamp;pressure;altitude;pressure_sealevel;temperature;humidity
78603;BME280;68102;46.068;18.206;2023-04-08T00:00:26;100276.09;;;6.66;71.50
78603;BME280;68102;46.068;18.206;2023-04-08T00:00:57;100290.16;;;6.65;71.85
78603;BME280;68102;46.068;18.206;2023-04-08T00:01:27;100277.25;;;6.62;71.70
78603;BME280;68102;46.068;18.206;2023-04-08T00:01:58;100267.72;;;6.61;72.13
78603;BME280;68102;46.068;18.206;2023-04-08T00:02:28;100281.44;;;6.64;71.75
78603;BME280;68102;46.068;18.206;2023-04-08T00:03:00;100263.81;;;6.54;72.04
78603;BME280;68102;46.068;18.206;2023-04-08T00:03:31;100271.78;;;6.52;72.06
78603;BME280;68102;46.068;18.206;2023-04-08T00:04:01;100268.34;;;6.52;72.17
78603;BME280;68102;46.068;18.206;2023-04-08T00:04:32;100276.00;;;6.55;72.16
78603;BME280;68102;46.068;18.206;2023-04-08T00:05:03;100265.59;;;6.53;72.07
78603;BME280;68102;46.068;18.206;2023-04-08T00:05:35;100262.16;;;6.53;72.12
78603;BME280;68102;46.068;18.206;2023-04-08T00:06:06;100280.81;;;6.61;72.01
78603;BME280;68102;46.068;18.206;2023-04-08T00:06:37;100271.78;;;6.52;72.46
78603;BME280;68102;46.068;18.206;2023-04-08T00:07:08;100262.31;;;6.50;72.20
78603;BME280;68102;46.068;18.206;2023-04-08T00:07:38;100278.31;;;6.59;72.29
78603;BME280;68102;46.068;18.206;2023-04-08T00:08:09;100275.03;;;6.56;72.28
78603;BME280;68102;46.068;18.206;2023-04-08T00:08:40;100284.19;;;6.63;72.24
78603;BME280;68102;46.068;18.206;2023-04-08T00:09:10;100278.50;;;6.56;72.29
78603;BME280;68102;46.068;18.206;2023-04-08T00:09:41;100282.72;;;6.59;72.29
78603;BME280;68102;46.068;18.206;2023-04-08T00:10:12;100268.41;;;6.50;72.16
78603;BME280;68102;46.068;18.206;2023-04-08T00:10:42;100278.50;;;6.56;72.39
78603;BME280;68102;46.068;18.206;2023-04-08T00:11:13;100276.72;;;6.57;72.27
78603;BME280;68102;46.068;18.206;2023-04-08T00:11:44;100284.38;;;6.60;72.00
78603;BME280;68102;46.068;18.206;2023-04-08T00:12:14;100284.19;;;6.63;72.33
78603;BME280;68102;46.068;18.206;2023-04-08T00:12:46;100276.19;;;6.52;72.28
78603;BME280;68102;46.068;18.206;2023-04-08T00:13:17;100267.03;;;6.45;72.36
78603;BME280;68102;46.068;18.206;2023-04-08T00:13:47;100265.25;;;6.45;72.18
78603;BME280;68102;46.068;18.206;2023-04-08T00:14:18;100264.63;;;6.42;72.65
78603;BME280;68102;46.068;18.206;2023-04-08T00:14:48;100286.69;;;6.52;72.69
78603;BME280;68102;46.068;18.206;2023-04-08T00:15:19;100270.06;;;6.38;72.53
78603;BME280;68102;46.068;18.206;2023-04-08T00:15:50;100271.75;;;6.40;72.71
78603;BME280;68102;46.068;18.206;2023-04-08T00:16:21;100277.53;;;6.45;72.74
78603;BME280;68102;46.068;18.206;2023-04-08T00:16:51;100274.38;;;6.40;72.83
78603;BME280;68102;46.068;18.206;2023-04-08T00:17:22;100272.47;;;6.42;72.67
78603;BME280;68102;46.068;18.206;2023-04-08T00:17:53;100286.22;;;6.45;72.47
78603;BME280;68102;46.068;18.206;2023-04-08T00:18:23;100274.78;;;6.46;72.46
78603;BME280;68102;46.068;18.206;2023-04-08T00:18:54;100282.56;;;6.48;72.86
78603;BME280;68102;46.068;18.206;2023-04-08T00:19:24;100270.28;;;6.35;72.51
78603;BME280;68102;46.068;18.206;2023-04-08T00:19:55;100282.66;;;6.46;73.14
78603;BME280;68102;46.068;18.206;2023-04-08T00:20:26;100282.03;;;6.43;72.99
78603;BME280;68102;46.068;18.206;2023-04-08T00:20:56;100276.88;;;6.41;72.66
78603;BME280;68102;46.068;18.206;2023-04-08T00:21:27;100277.81;;;6.40;72.80
78603;BME280;68102;46.068;18.206;2023-04-08T00:21:58;100282.66;;;6.46;72.90
78603;BME280;68102;46.068;18.206;2023-04-08T00:22:28;100260.78;;;6.20;73.43
78603;BME280;68102;46.068;18.206;2023-04-08T00:22:59;100279.88;;;6.22;73.41
78603;BME280;68102;46.068;18.206;2023-04-08T00:23:29;100284.41;;;6.06;74.33
78603;BME280;68102;46.068;18.206;2023-04-08T00:24:00;100261.59;;;5.94;74.25
78603;BME280;68102;46.068;18.206;2023-04-08T00:24:31;100274.66;;;6.08;74.02
78603;BME280;68102;46.068;18.206;2023-04-08T00:25:02;100284.47;;;6.19;74.24
78603;BME280;68102;46.068;18.206;2023-04-08T00:25:35;100280.50;;;6.26;73.75
78603;BME280;68102;46.068;18.206;2023-04-08T00:26:06;100265.81;;;6.23;73.48
78603;BME280;68102;46.068;18.206;2023-04-08T00:26:36;100274.66;;;6.35;73.48
78603;BME280;68102;46.068;18.206;2023-04-08T00:27:07;100262.03;;;6.27;73.67
78603;BME280;68102;46.068;18.206;2023-04-08T00:27:38;100256.28;;;6.22;74.12
78603;BME280;68102;46.068;18.206;2023-04-08T00:28:09;100250.19;;;6.22;73.77
78603;BME280;68102;46.068;18.206;2023-04-08T00:28:40;100265.22;;;6.32;73.76
78603;BME280;68102;46.068;18.206;2023-04-08T00:29:12;100265.22;;;6.32;73.48
78603;BME280;68102;46.068;18.206;2023-04-08T00:29:43;100262.16;;;6.26;73.38
78603;BME280;68102;46.068;18.206;2023-04-08T00:30:14;100267.09;;;6.30;73.30
78603;BME280;68102;46.068;18.206;2023-04-08T00:30:45;100263.00;;;6.26;73.09
78603;BME280;68102;46.068;18.206;2023-04-08T00:31:15;100257.75;;;6.26;73.14
78603;BME280;68102;46.068;18.206;2023-04-08T00:31:46;100270.66;;;6.29;73.41
78603;BME280;68102;46.068;18.206;2023-04-08T00:32:17;100264.47;;;6.30;72.95
78603;BME280;68102;46.068;18.206;2023-04-08T00:32:47;100260.16;;;6.29;73.17
78603;BME280;68102;46.068;18.206;2023-04-08T00:33:18;100280.34;;;6.42;73.40
78603;BME280;68102;46.068;18.206;2023-04-08T00:33:48;100266.97;;;6.32;73.01
78603;BME280;68102;46.068;18.206;2023-04-08T00:34:19;100282.66;;;6.46;73.36
78603;BME280;68102;46.068;18.206;2023-04-08T00:34:50;100265.66;;;6.39;73.18
78603;BME280;68102;46.068;18.206;2023-04-08T00:35:20;100278.47;;;6.44;73.22
78603;BME280;68102;46.068;18.206;2023-04-08T00:35:51;100282.03;;;6.43;73.18
78603;BME280;68102;46.068;18.206;2023-04-08T00:36:22;100268.59;;;6.34;73.25
78603;BME280;68102;46.068;18.206;2023-04-08T00:36:52;100264.28;;;6.33;72.97
78603;BME280;68102;46.068;18.206;2023-04-08T00:37:23;100277.00;;;6.40;73.10
78603;BME280;68102;46.068;18.206;2023-04-08T00:37:54;100280.34;;;6.42;73.27
78603;BME280;68102;46.068;18.206;2023-04-08T00:38:24;100284.44;;;6.33;72.75
78603;BME280;68102;46.068;18.206;2023-04-08T00:38:55;100267.59;;;6.23;73.09
78603;BME280;68102;46.068;18.206;2023-04-08T00:39:26;100288.22;;;6.15;72.85
78603;BME280;68102;46.068;18.206;2023-04-08T00:39:57;100265.91;;;6.22;73.08
78603;BME280;68102;46.068;18.206;2023-04-08T00:40:28;100272.94;;;6.21;73.31
78603;BME280;68102;46.068;18.206;2023-04-08T00:40:59;100275.25;;;6.26;72.62
78603;BME280;68102;46.068;18.206;2023-04-08T00:41:29;100278.97;;;6.36;72.81
78603;BME280;68102;46.068;18.206;2023-04-08T00:42:00;100267.09;;;6.30;72.80
78603;BME280;68102;46.068;18.206;2023-04-08T00:42:31;100281.69;;;6.34;72.48
78603;BME280;68102;46.068;18.206;2023-04-08T00:43:01;100267.94;;;6.31;72.79
78603;BME280;68102;46.068;18.206;2023-04-08T00:43:32;100271.69;;;6.27;72.70
78603;BME280;68102;46.068;18.206;2023-04-08T00:44:02;100286.75;;;6.37;72.56
78603;BME280;68102;46.068;18.206;2023-04-08T00:44:33;100276.63;;;6.31;72.72
78603;BME280;68102;46.068;18.206;2023-04-08T00:45:04;100264.88;;;6.24;72.48
78603;BME280;68102;46.068;18.206;2023-04-08T00:45:35;100283.38;;;6.35;72.32
78603;BME280;68102;46.068;18.206;2023-04-08T00:46:05;100280.03;;;6.33;72.47
78603;BME280;68102;46.068;18.206;2023-04-08T00:46:38;100284.84;;;6.40;72.48
78603;BME280;68102;46.068;18.206;2023-04-08T00:47:12;100264.34;;;6.32;71.76
78603;BME280;68102;46.068;18.206;2023-04-08T00:47:43;100277.00;;;6.40;72.00
78603;BME280;68102;46.068;18.206;2023-04-08T00:48:14;100267.84;;;6.32;71.79
78603;BME280;68102;46.068;18.206;2023-04-08T00:48:45;100272.53;;;6.27;72.54
78603;BME280;68102;46.068;18.206;2023-04-08T00:49:16;100284.84;;;6.40;72.06
78603;BME280;68102;46.068;18.206;2023-04-08T00:49:47;100273.38;;;6.28;73.03
78603;BME280;68102;46.068;18.206;2023-04-08T00:50:18;100286.63;;;6.39;72.75
78603;BME280;68102;46.068;18.206;2023-04-08T00:50:49;100287.56;;;6.38;72.78
78603;BME280;68102;46.068;18.206;2023-04-08T00:51:20;100281.50;;;6.37;72.94
78603;BME280;68102;46.068;18.206;2023-04-08T00:51:51;100284.13;;;6.37;73.42
78603;BME280;68102;46.068;18.206;2023-04-08T00:52:22;100280.97;;;6.32;73.35
78603;BME280;68102;46.068;18.206;2023-04-08T00:52:53;100274.22;;;6.28;73.58
78603;BME280;68102;46.068;18.206;2023-04-08T00:53:25;100280.19;;;6.30;73.85
78603;BME280;68102;46.068;18.206;2023-04-08T00:53:56;100285.06;;;6.36;73.59
78603;BME280;68102;46.068;18.206;2023-04-08T00:54:27;100287.69;;;6.36;73.72
78603;BME280;68102;46.068;18.206;2023-04-08T00:54:57;100277.41;;;6.33;73.75
78603;BME280;68102;46.068;18.206;2023-04-08T00:55:28;100271.69;;;6.27;73.82
78603;BME280;68102;46.068;18.206;2023-04-08T00:55:58;100292.28;;;6.33;73.64
78603;BME280;68102;46.068;18.206;2023-04-08T00:56:31;100291.44;;;6.32;73.64
78603;BME280;68102;46.068;18.206;2023-04-08T00:57:03;100282.91;;;6.29;73.95
78603;BME280;68102;46.068;18.206;2023-04-08T00:57:35;100281.34;;;6.26;74.13
78603;BME280;68102;46.068;18.206;2023-04-08T00:58:05;100289.94;;;6.28;73.98
78603;BME280;68102;46.068;18.206;2023-04-08T00:58:38;100278.38;;;6.18;73.96
78603;BME280;68102;46.068;18.206;2023-04-08T00:59:09;100272.66;;;6.12;74.00
78603;BME280;68102;46.068;18.206;2023-04-08T00:59:40;100274.34;;;6.13;74.47
78603;BME280;68102;46.068;18.206;2023-04-08T01:00:12;100278.38;;;6.18;74.45
78603;BME280;68102;46.068;18.206;2023-04-08T01:00:51;100283.63;;;6.18;74.09
78603;BME280;68102;46.068;18.206;2023-04-08T01:05:08;100286.56;;;6.14;74.45
78603;BME280;68102;46.068;18.206;2023-04-08T01:06:02;100290.00;;;6.14;74.63
78603;BME280;68102;46.068;18.206;2023-04-08T01:06:40;100283.34;;;6.08;74.80
78603;BME280;68102;46.068;18.206;2023-04-08T01:07:19;100278.59;;;6.15;74.94
78603;BME280;68102;46.068;18.206;2023-04-08T01:07:51;100280.44;;;6.13;75.11
78603;BME280;68102;46.068;18.206;2023-04-08T01:08:26;100279.44;;;6.16;75.11
78603;BME280;68102;46.068;18.206;2023-04-08T01:08:59;100271.09;;;6.09;75.02
78603;BME280;68102;46.068;18.206;2023-04-08T01:09:32;100263.97;;;6.11;74.83
78603;BME280;68102;46.068;18.206;2023-04-08T01:10:12;100267.34;;;6.13;75.27
78603;BME280;68102;46.068;18.206;2023-04-08T01:10:49;100259.47;;;6.13;75.04
78603;BME280;68102;46.068;18.206;2023-04-08T01:11:22;100275.88;;;6.17;75.22
78603;BME280;68102;46.068;18.206;2023-04-08T01:11:52;100279.97;;;6.21;75.03
78603;BME280;68102;46.068;18.206;2023-04-08T01:12:28;100261.19;;;6.14;75.19
78603;BME280;68102;46.068;18.206;2023-04-08T01:13:06;100275.75;;;6.18;75.04
78603;BME280;68102;46.068;18.206;2023-04-08T01:13:39;100269.47;;;6.21;75.10
78603;BME280;68102;46.068;18.206;2023-04-08T01:14:19;100265.38;;;6.17;75.04
78603;BME280;68102;46.068;18.206;2023-04-08T01:14:54;100272.41;;;6.16;75.15
78603;BME280;68102;46.068;18.206;2023-04-08T01:15:28;100280.06;;;6.19;75.47
78603;BME280;68102;46.068;18.206;2023-04-08T01:16:00;100266.22;;;6.17;75.28
78603;BME280;68102;46.068;18.206;2023-04-08T01:16:31;100281.84;;;6.19;75.21
78603;BME280;68102;46.068;18.206;2023-04-08T01:17:03;100264.81;;;6.12;75.70
78603;BME280;68102;46.068;18.206;2023-04-08T01:17:36;100249.50;;;6.05;75.11
78603;BME280;68102;46.068;18.206;2023-04-08T01:18:10;100262.66;;;6.18;75.53
78603;BME280;68102;46.068;18.206;2023-04-08T01:18:43;100271.25;;;6.20;75.62
78603;BME280;68102;46.068;18.206;2023-04-08T01:19:26;100260.25;;;6.15;75.31
78603;BME280;68102;46.068;18.206;2023-04-08T01:20:00;100254.31;;;6.12;75.78
78603;BME280;68102;46.068;18.206;2023-04-08T01:20:33;100257.78;;;6.12;75.39
78603;BME280;68102;46.068;18.206;2023-04-08T01:21:05;100274.91;;;6.18;75.29
78603;BME280;68102;46.068;18.206;2023-04-08T01:21:37;100261.19;;;6.14;75.48
78603;BME280;68102;46.068;18.206;2023-04-08T01:23:52;100272.66;;;6.12;75.46
78603;BME280;68102;46.068;18.206;2023-04-08T01:24:30;100270.25;;;6.08;76.23
78603;BME280;68102;46.068;18.206;2023-04-08T01:25:05;100263.34;;;6.07;75.94
78603;BME280;68102;46.068;18.206;2023-04-08T01:25:38;100258.28;;;6.04;75.25
78603;BME280;68102;46.068;18.206;2023-04-08T01:26:12;100257.25;;;6.07;75.84
78603;BME280;68102;46.068;18.206;2023-04-08T01:26:51;100262.97;;;6.14;75.93
78603;BME280;68102;46.068;18.206;2023-04-08T01:27:23;100246.03;;;6.05;76.11
78603;BME280;68102;46.068;18.206;2023-04-08T01:27:55;100259.34;;;6.02;76.11
78603;BME280;68102;46.068;18.206;2023-04-08T01:28:28;100271.72;;;6.13;75.90
78603;BME280;68102;46.068;18.206;2023-04-08T01:29:01;100253.91;;;6.05;75.91
78603;BME280;68102;46.068;18.206;2023-04-08T01:29:33;100263.22;;;6.09;76.16
78603;BME280;68102;46.068;18.206;2023-04-08T01:30:06;100267.63;;;6.08;75.81
78603;BME280;68102;46.068;18.206;2023-04-08T01:30:39;100262.59;;;6.05;76.03
78603;BME280;68102;46.068;18.206;2023-04-08T01:31:10;100269.41;;;6.08;75.88
78603;BME280;68102;46.068;18.206;2023-04-08T01:31:42;100274.34;;;6.13;76.25
78603;BME280;68102;46.068;18.206;2023-04-08T01:32:15;100269.22;;;6.11;76.02
78603;BME280;68102;46.068;18.206;2023-04-08T01:32:46;100254.84;;;6.04;75.62
78603;BME280;68102;46.068;18.206;2023-04-08T01:33:18;100255.38;;;6.09;75.50
78603;BME280;68102;46.068;18.206;2023-04-08T01:33:51;100262.97;;;6.14;75.61
78603;BME280;68102;46.068;18.206;2023-04-08T01:34:24;100273.34;;;6.15;75.98
78603;BME280;68102;46.068;18.206;2023-04-08T01:34:56;100268.38;;;6.11;76.01
78603;BME280;68102;46.068;18.206;2023-04-08T01:35:29;100264.28;;;6.06;76.20
78603;BME280;68102;46.068;18.206;2023-04-08T01:36:02;100278.69;;;6.14;76.31
78603;BME280;68102;46.068;18.206;2023-04-08T01:36:34;100272.78;;;6.10;75.91
78603;BME280;68102;46.068;18.206;2023-04-08T01:37:07;100277.91;;;6.12;76.23
78603;BME280;68102;46.068;18.206;2023-04-08T01:37:39;100280.38;;;6.15;76.25
78603;BME280;68102;46.068;18.206;2023-04-08T01:38:14;100279.53;;;6.14;76.49
78603;BME280;68102;46.068;18.206;2023-04-08T01:38:47;100280.06;;;6.19;76.48
78603;BME280;68102;46.068;18.206;2023-04-08T01:39:19;100269.22;;;6.11;76.23
78603;BME280;68102;46.068;18.206;2023-04-08T01:39:51;100274.56;;;6.10;75.90
78603;BME280;68102;46.068;18.206;2023-04-08T01:40:24;100273.50;;;6.12;76.42
78603;BME280;68102;46.068;18.206;2023-04-08T01:40:55;100266.16;;;6.04;76.50
78603;BME280;68102;46.068;18.206;2023-04-08T01:41:28;100285.50;;;6.16;76.52
78603;BME280;68102;46.068;18.206;2023-04-08T01:41:59;100258.41;;;6.03;76.61
78603;BME280;68102;46.068;18.206;2023-04-08T01:42:32;100278.75;;;6.12;76.52
78603;BME280;68102;46.068;18.206;2023-04-08T01:43:07;100276.69;;;6.17;76.42
78603;BME280;68102;46.068;18.206;2023-04-08T01:43:39;100282.88;;;6.16;77.15
78603;BME280;68102;46.068;18.206;2023-04-08T01:44:14;100288.75;;;6.20;76.53
78603;BME280;68102;46.068;18.206;2023-04-08T01:44:46;100275.19;;;6.13;76.59
78603;BME280;68102;46.068;18.206;2023-04-08T01:45:18;100260.06;;;6.04;76.64
78603;BME280;68102;46.068;18.206;2023-04-08T01:45:49;100282.88;;;6.16;76.51
78603;BME280;68102;46.068;18.206;2023-04-08T01:46:24;100270.16;;;6.10;76.11
78603;BME280;68102;46.068;18.206;2023-04-08T01:46:56;100269.22;;;6.11;76.87
78603;BME280;68102;46.068;18.206;2023-04-08T01:47:28;100265.13;;;6.07;76.13
78603;BME280;68102;46.068;18.206;2023-04-08T01:48:00;100263.22;;;6.09;76.11
78603;BME280;68102;46.068;18.206;2023-04-08T01:48:32;100264.81;;;6.12;76.15
78603;BME280;68102;46.068;18.206;2023-04-08T01:49:05;100267.44;;;6.12;75.86
78603;BME280;68102;46.068;18.206;2023-04-08T01:49:37;100264.53;;;6.16;76.18
78603;BME280;68102;46.068;18.206;2023-04-08T01:50:08;100284.16;;;6.23;75.70
78603;BME280;68102;46.068;18.206;2023-04-08T01:50:43;100260.50;;;6.11;75.90
78603;BME280;68102;46.068;18.206;2023-04-08T01:51:15;100278.38;;;6.18;75.26
78603;BME280;68102;46.068;18.206;2023-04-08T01:51:47;100263.22;;;6.09;75.14
78603;BME280;68102;46.068;18.206;2023-04-08T01:52:19;100278.59;;;6.15;75.25
78603;BME280;68102;46.068;18.206;2023-04-08T01:52:53;100275.03;;;6.16;75.44
78603;BME280;68102;46.068;18.206;2023-04-08T01:53:24;100258.19;;;6.06;75.42
78603;BME280;68102;46.068;18.206;2023-04-08T01:53:55;100273.50;;;6.12;75.41
78603;BME280;68102;46.068;18.206;2023-04-08T01:54:25;100281.31;;;6.14;76.09
78603;BME280;68102;46.068;18.206;2023-04-08T01:54:56;100277.91;;;6.12;75.85
78603;BME280;68102;46.068;18.206;2023-04-08T01:55:27;100264.56;;;6.02;75.68
78603;BME280;68102;46.068;18.206;2023-04-08T01:56:05;100269.50;;;6.06;75.75
78603;BME280;68102;46.068;18.206;2023-04-08T01:56:38;100267.94;;;6.04;75.72
78603;BME280;68102;46.068;18.206;2023-04-08T01:57:14;100278.94;;;6.09;76.09
78603;BME280;68102;46.068;18.206;2023-04-08T01:57:49;100277.47;;;6.05;75.90
78603;BME280;68102;46.068;18.206;2023-04-08T01:58:21;100275.41;;;6.10;75.62
78603;BME280;68102;46.068;18.206;2023-04-08T01:58:57;100276.22;;;6.11;75.75
78603;BME280;68102;46.068;18.206;2023-04-08T01:59:33;100265.13;;;6.07;75.76
78603;BME280;68102;46.068;18.206;2023-04-08T02:00:08;100272.88;;;6.08;75.58
78603;BME280;68102;46.068;18.206;2023-04-08T02:00:40;100281.47;;;6.11;75.27
78603;BME280;68102;46.068;18.206;2023-04-08T02:01:16;100279.59;;;6.13;75.75
78603;BME280;68102;46.068;18.206;2023-04-08T02:01:49;100268.69;;;6.06;75.33
78603;BME280;68102;46.068;18.206;2023-04-08T02:02:24;100269.72;;;6.03;75.55
78603;BME280;68102;46.068;18.206;2023-04-08T02:02:57;100278.94;;;6.09;75.64
78603;BME280;68102;46.068;18.206;2023-04-08T02:03:30;100260.28;;;6.01;75.37
78603;BME280;68102;46.068;18.206;2023-04-08T02:04:02;100264.47;;;6.03;75.77
78603;BME280;68102;46.068;18.206;2023-04-08T02:04:34;100263.84;;;6.00;75.44
78603;BME280;68102;46.068;18.206;2023-04-08T02:05:05;100274.56;;;6.10;75.62
78603;BME280;68102;46.068;18.206;2023-04-08T02:05:36;100266.91;;;6.06;75.69
78603;BME280;68102;46.068;18.206;2023-04-08T02:06:06;100261.00;;;6.03;75.58
78603;BME280;68102;46.068;18.206;2023-04-08T02:06:37;100264.28;;;6.06;75.83
78603;BME280;68102;46.068;18.206;2023-04-08T02:07:08;100267.53;;;6.10;75.42
78603;BME280;68102;46.068;18.206;2023-04-08T02:07:39;100268.69;;;6.06;75.28
78603;BME280;68102;46.068;18.206;2023-04-08T02:08:27;100275.19;;;6.13;75.49
78603;BME280;68102;46.068;18.206;2023-04-08T02:08:58;100274.19;;;6.16;75.13
78603;BME280;68102;46.068;18.206;2023-04-08T02:09:29;100279.31;;;6.17;75.04
78603;BME280;68102;46.068;18.206;2023-04-08T02:09:59;100280.25;;;6.16;75.31
78603;BME280;68102;46.068;18.206;2023-04-08T02:10:30;100258.19;;;6.06;75.45
78603;BME280;68102;46.068;18.206;2023-04-08T02:11:02;100278.00;;;6.10;75.70
78603;BME280;68102;46.068;18.206;2023-04-08T02:11:33;100265.22;;;6.05;75.32
78603;BME280;68102;46.068;18.206;2023-04-08T02:12:03;100271.66;;;6.14;75.25
78603;BME280;68102;46.068;18.206;2023-04-08T02:12:34;100267.25;;;6.15;75.29
78603;BME280;68102;46.068;18.206;2023-04-08T02:13:05;100283.63;;;6.18;75.02
78603;BME280;68102;46.068;18.206;2023-04-08T02:13:36;100267.44;;;6.12;75.22
78603;BME280;68102;46.068;18.206;2023-04-08T02:14:06;100272.78;;;6.10;75.67
78603;BME280;68102;46.068;18.206;2023-04-08T02:14:37;100263.22;;;6.09;75.47
78603;BME280;68102;46.068;18.206;2023-04-08T02:15:09;100271.84;;;6.11;75.91
78603;BME280;68102;46.068;18.206;2023-04-08T02:15:48;100265.47;;;6.15;75.54
78603;BME280;68102;46.068;18.206;2023-04-08T02:16:33;100277.44;;;6.19;75.36
78603;BME280;68102;46.068;18.206;2023-04-08T02:17:10;100258.72;;;6.11;75.47
78603;BME280;68102;46.068;18.206;2023-04-08T02:17:59;100271.06;;;6.23;75.40
78603;BME280;68102;46.068;18.206;2023-04-08T02:18:34;100263.69;;;6.16;75.52
78603;BME280;68102;46.068;18.206;2023-04-08T02:19:23;100283.72;;;6.17;75.83
78603;BME280;68102;46.068;18.206;2023-04-08T02:20:07;100280.91;;;6.20;75.86
78603;BME280;68102;46.068;18.206;2023-04-08T02:20:55;100268.69;;;6.06;75.73
78603;BME280;68102;46.068;18.206;2023-04-08T02:21:34;100259.63;;;5.83;75.40
78603;BME280;68102;46.068;18.206;2023-04-08T02:22:12;100287.22;;;6.03;76.00
78603;BME280;68102;46.068;18.206;2023-04-08T02:23:24;100276.00;;;6.01;75.18
78603;BME280;68102;46.068;18.206;2023-04-08T02:23:58;100273.28;;;6.02;75.50
78603;BME280;68102;46.068;18.206;2023-04-08T02:24:31;100263.84;;;6.00;75.33
78603;BME280;68102;46.068;18.206;2023-04-08T02:25:03;100264.38;;;6.05;75.27
78603;BME280;68102;46.068;18.206;2023-04-08T02:25:39;100282.78;;;6.18;74.91
78603;BME280;68102;46.068;18.206;2023-04-08T02:26:14;100259.88;;;6.07;75.13
78603;BME280;68102;46.068;18.206;2023-04-08T02:26:48;100274.47;;;6.11;74.72
78603;BME280;68102;46.068;18.206;2023-04-08T02:27:23;100275.88;;;6.17;74.87
78603;BME280;68102;46.068;18.206;2023-04-08T02:27:56;100276.69;;;6.17;75.06
78603;BME280;68102;46.068;18.206;2023-04-08T02:28:28;100277.97;;;6.24;75.07
78603;BME280;68102;46.068;18.206;2023-04-08T02:29:02;100278.91;;;6.23;75.08
78603;BME280;68102;46.068;18.206;2023-04-08T02:29:35;100272.94;;;6.21;75.13
78603;BME280;68102;46.068;18.206;2023-04-08T02:30:09;100264.34;;;6.19;75.53
78603;BME280;68102;46.068;18.206;2023-04-08T02:30:41;100276.09;;;6.26;75.28
78603;BME280;68102;46.068;18.206;2023-04-08T02:31:12;100279.66;;;6.25;75.30
78603;BME280;68102;46.068;18.206;2023-04-08T02:31:46;100267.50;;;6.24;75.26
78603;BME280;68102;46.068;18.206;2023-04-08T02:32:18;100266.97;;;6.19;75.47
78603;BME280;68102;46.068;18.206;2023-04-08T02:32:52;100262.66;;;6.18;75.13
78603;BME280;68102;46.068;18.206;2023-04-08T02:33:24;100270.22;;;6.23;74.38
78603;BME280;68102;46.068;18.206;2023-04-08T02:33:56;100267.06;;;6.18;74.66
78603;BME280;68102;46.068;18.206;2023-04-08T02:34:30;100277.03;;;6.25;73.90
78603;BME280;68102;46.068;18.206;2023-04-08T02:35:03;100286.03;;;6.21;73.70
78603;BME280;68102;46.068;18.206;2023-04-08T02:35:35;100272.53;;;5.86;74.66
78603;BME280;68102;46.068;18.206;2023-04-08T02:36:07;100269.72;;;5.89;75.06
78603;BME280;68102;46.068;18.206;2023-04-08T02:36:41;100269.06;;;6.00;74.27
78603;BME280;68102;46.068;18.206;2023-04-08T02:37:15;100273.72;;;6.09;74.00
78603;BME280;68102;46.068;18.206;2023-04-08T02:37:46;100272.25;;;6.05;73.83
78603;BME280;68102;46.068;18.206;2023-04-08T02:38:20;100278.06;;;5.96;74.58
78603;BME280;68102;46.068;18.206;2023-04-08T02:38:50;100275.59;;;6.07;74.32
78603;BME280;68102;46.068;18.206;2023-04-08T02:39:29;100282.78;;;6.18;73.69
78603;BME280;68102;46.068;18.206;2023-04-08T02:40:00;100279.31;;;6.17;73.62
78603;BME280;68102;46.068;18.206;2023-04-08T02:40:32;100270.13;;;6.24;73.31
78603;BME280;68102;46.068;18.206;2023-04-08T02:41:04;100266.22;;;6.17;73.20
78603;BME280;68102;46.068;18.206;2023-04-08T02:41:35;100267.69;;;6.21;73.70
78603;BME280;68102;46.068;18.206;2023-04-08T02:42:05;100262.66;;;6.18;73.53
78603;BME280;68102;46.068;18.206;2023-04-08T02:42:36;100261.91;;;6.16;73.24
78603;BME280;68102;46.068;18.206;2023-04-08T02:43:07;100273.56;;;6.25;73.02
78603;BME280;68102;46.068;18.206;2023-04-08T02:43:38;100264.13;;;6.22;73.04
78603;BME280;68102;46.068;18.206;2023-04-08T02:44:10;100263.69;;;6.16;72.77
78603;BME280;68102;46.068;18.206;2023-04-08T02:44:41;100282.28;;;6.25;72.83
78603;BME280;68102;46.068;18.206;2023-04-08T02:45:11;100266.13;;;6.19;73.14
78603;BME280;68102;46.068;18.206;2023-04-08T02:45:43;100286.22;;;6.32;73.39
78603;BME280;68102;46.068;18.206;2023-04-08T02:46:14;100283.47;;;6.34;73.17
78603;BME280;68102;46.068;18.206;2023-04-08T02:46:46;100283.66;;;6.31;73.92
78603;BME280;68102;46.068;18.206;2023-04-08T02:47:16;100282.81;;;6.30;73.88
78603;BME280;68102;46.068;18.206;2023-04-08T02:47:47;100271.91;;;6.24;74.17
78603;BME280;68102;46.068;18.206;2023-04-08T02:48:18;100280.19;;;6.30;74.11
78603;BME280;68102;46.068;18.206;2023-04-08T02:48:48;100263.19;;;6.23;74.04
78603;BME280;68102;46.068;18.206;2023-04-08T02:49:20;100277.19;;;6.10;74.22
78603;BME280;68102;46.068;18.206;2023-04-08T02:49:51;100280.44;;;6.13;74.37
78603;BME280;68102;46.068;18.206;2023-04-08T02:50:24;100280.25;;;6.16;74.40
78603;BME280;68102;46.068;18.206;2023-04-08T02:50:54;100264.53;;;6.16;74.48
78603;BME280;68102;46.068;18.206;2023-04-08T02:51:25;100278.06;;;6.23;74.27
78603;BME280;68102;46.068;18.206;2023-04-08T02:51:57;100283.59;;;6.32;74.47
78603;BME280;68102;46.068;18.206;2023-04-08T02:52:27;100276.94;;;6.27;74.61
78603;BME280;68102;46.068;18.206;2023-04-08T02:52:58;100280.09;;;6.32;74.62
78603;BME280;68102;46.068;18.206;2023-04-08T02:53:29;100281.03;;;6.31;74.83
78603;BME280;68102;46.068;18.206;2023-04-08T02:53:59;100275.16;;;6.27;74.91
78603;BME280;68102;46.068;18.206;2023-04-08T02:54:30;100264.97;;;6.23;74.88
78603;BME280;68102;46.068;18.206;2023-04-08T02:55:01;100281.88;;;6.31;75.20
78603;BME280;68102;46.068;18.206;2023-04-08T02:55:32;100272.72;;;6.24;74.90
78603;BME280;68102;46.068;18.206;2023-04-08T02:56:03;100279.44;;;6.28;74.83